createdAt,value
2022-12-26T00:00:02.426Z,100451.16
2022-12-26T00:05:09.429Z,100449.22
2022-12-26T00:10:12.540Z,100436.91
2022-12-26T00:15:16.703Z,100440.66
2022-12-26T00:20:19.543Z,100442.78
2022-12-26T00:25:22.430Z,100444.84
2022-12-26T00:30:26.531Z,100443.31
2022-12-26T00:35:29.289Z,100447.53
2022-12-26T00:40:32.088Z,100455.66
2022-12-26T00:45:36.262Z,100483.03
2022-12-26T00:50:39.037Z,100472.22
2022-12-26T00:55:41.877Z,100472.34
2022-12-26T01:00:46.314Z,100464.81
2022-12-26T01:05:51.968Z,100461.75
2022-12-26T01:10:54.725Z,100472.19
2022-12-26T01:15:59.086Z,100469.50
2022-12-26T01:21:03.575Z,100469.59
2022-12-26T01:26:16.909Z,100470.56
2022-12-26T01:31:24.883Z,100456.53
2022-12-26T01:36:27.734Z,100451.19
2022-12-26T01:41:33.156Z,100448.84
2022-12-26T01:46:41.550Z,100457.53
2022-12-26T01:51:46.040Z,100459.88
2022-12-26T01:56:49.566Z,100462.22
2022-12-26T02:01:55.275Z,100466.66
2022-12-26T02:07:00.954Z,100460.66
2022-12-26T02:12:33.761Z,100469.41
2022-12-26T02:17:33.882Z,100477.63
2022-12-26T02:23:05.483Z,100481.81
2022-12-26T02:28:32.550Z,100475.31
2022-12-26T02:33:51.039Z,100475.72
2022-12-26T02:39:04.047Z,100476.28
2022-12-26T02:44:49.967Z,100485.41
2022-12-26T02:50:22.440Z,100479.41
2022-12-26T02:55:47.107Z,100489.75
2022-12-26T03:01:14.896Z,100473.97
2022-12-26T03:06:40.747Z,100482.09
2022-12-26T03:12:06.709Z,100473.44
2022-12-26T03:17:22.438Z,100473.84
2022-12-26T03:22:31.524Z,100477.13
2022-12-26T03:27:34.957Z,100471.69
2022-12-26T03:32:43.670Z,100467.31
2022-12-26T03:37:54.097Z,100475.34
2022-12-26T03:43:28.287Z,100477.84
2022-12-26T03:48:51.578Z,100476.97
2022-12-26T03:54:20.641Z,100476.97
2022-12-26T03:59:48.570Z,100475.34
2022-12-26T04:05:12.927Z,100472.38
2022-12-26T04:10:38.566Z,100467.97
2022-12-26T04:16:04.119Z,100457.06
2022-12-26T04:21:34.990Z,100466.47
2022-12-26T04:27:02.491Z,100469.72
2022-12-26T04:32:30.188Z,100472.84
2022-12-26T04:37:52.354Z,100472.81
2022-12-26T04:43:47.063Z,100475.94
2022-12-26T04:49:02.083Z,100476.59
2022-12-26T04:54:05.597Z,100478.97
2022-12-26T04:59:10.169Z,100466.56
2022-12-26T05:04:32.407Z,100478.88
2022-12-26T05:09:36.702Z,100486.94
2022-12-26T05:14:41.574Z,100499.09
2022-12-26T05:20:02.105Z,100492.22
2022-12-26T05:25:23.071Z,100490.59
2022-12-26T05:30:27.486Z,100485.75
2022-12-26T05:35:30.335Z,100484.19
2022-12-26T05:40:33.480Z,100484.09
2022-12-26T05:45:37.669Z,100477.34
2022-12-26T05:50:40.404Z,100481.53
2022-12-26T05:55:43.254Z,100489.19
2022-12-26T06:00:47.565Z,100472.19
2022-12-26T06:05:50.307Z,100473.91
2022-12-26T06:10:53.498Z,100475.38
2022-12-26T06:15:58.541Z,100461.72
2022-12-26T06:21:04.925Z,100473.50
2022-12-26T06:26:10.249Z,100477.94
2022-12-26T06:31:18.061Z,100484.53
2022-12-26T06:36:23.097Z,100485.69
2022-12-26T06:41:26.756Z,100488.47
2022-12-26T06:46:30.999Z,100498.41
2022-12-26T06:51:35.302Z,100492.41
2022-12-26T06:56:38.194Z,100506.69
2022-12-26T07:01:42.478Z,100508.19
2022-12-26T07:06:45.340Z,100505.50
2022-12-26T07:11:49.870Z,100516.66
2022-12-26T07:16:54.131Z,100519.72
2022-12-26T07:21:56.893Z,100521.06
2022-12-26T07:26:59.812Z,100537.13
2022-12-26T07:32:04.048Z,100544.72
2022-12-26T07:37:06.944Z,100541.47
2022-12-26T07:42:09.765Z,100528.06
2022-12-26T07:47:13.952Z,100521.03
2022-12-26T07:52:16.831Z,100503.19
2022-12-26T07:57:47.521Z,100502.16
2022-12-26T08:02:43.904Z,100499.13
2022-12-26T08:07:47.682Z,100481.69
2022-12-26T08:12:50.463Z,100472.19
2022-12-26T08:17:54.575Z,100479.28
2022-12-26T08:28:05.292Z,100476.16
2022-12-26T08:33:10.569Z,100484.69
2022-12-26T08:38:13.316Z,100490.41
2022-12-26T08:48:41.959Z,100482.19
2022-12-26T08:53:45.900Z,100475.56
2022-12-26T08:58:48.788Z,100470.50
2022-12-26T09:03:57.362Z,100480.59
2022-12-26T09:09:00.813Z,100482.00
2022-12-26T09:14:04.966Z,100501.72
2022-12-26T09:19:12.021Z,100502.75
2022-12-26T09:24:17.677Z,100515.59
2022-12-26T09:29:20.477Z,100514.13
2022-12-26T09:34:24.643Z,100508.31
2022-12-26T09:39:27.542Z,100509.69
2022-12-26T09:44:40.949Z,100510.66
2022-12-26T09:49:51.844Z,100514.56
2022-12-26T09:54:59.852Z,100505.84
2022-12-26T10:00:05.394Z,100507.41
2022-12-26T10:05:16.649Z,100503.22
2022-12-26T10:10:26.694Z,100499.75
2022-12-26T10:15:39.264Z,100487.09
2022-12-26T10:20:55.314Z,100481.00
2022-12-26T10:26:04.838Z,100487.22
2022-12-26T10:31:14.526Z,100489.66
2022-12-26T10:36:28.131Z,100483.69
2022-12-26T10:41:36.827Z,100476.19
2022-12-26T10:46:54.876Z,100462.84
2022-12-26T10:52:02.393Z,100457.97
2022-12-26T10:57:08.345Z,100455.50
2022-12-26T11:02:24.443Z,100438.19
2022-12-26T11:07:32.117Z,100434.59
2022-12-26T11:12:41.241Z,100435.06
2022-12-26T11:17:46.228Z,100435.38
2022-12-26T11:22:51.783Z,100437.91
2022-12-26T11:27:56.715Z,100425.09
2022-12-26T11:33:22.168Z,100413.63
2022-12-26T11:38:44.938Z,100405.25
2022-12-26T11:43:49.273Z,100400.88
2022-12-26T11:48:52.662Z,100404.88
2022-12-26T11:54:16.792Z,100389.31
2022-12-26T11:59:23.702Z,100396.28
2022-12-26T12:04:26.511Z,100393.69
2022-12-26T12:09:38.825Z,100386.78
2022-12-26T12:14:54.967Z,100388.41
2022-12-26T12:20:18.743Z,100388.78
2022-12-26T12:25:40.730Z,100384.88
2022-12-26T12:30:52.202Z,100390.38
2022-12-26T12:36:07.495Z,100384.25
2022-12-26T12:41:41.959Z,100389.63
2022-12-26T12:46:56.034Z,100391.03
2022-12-26T12:52:14.156Z,100384.16
2022-12-26T12:57:29.113Z,100392.28
2022-12-26T13:02:37.852Z,100388.88
2022-12-26T13:07:47.326Z,100391.41
2022-12-26T13:12:54.488Z,100397.00
2022-12-26T13:18:02.081Z,100407.56
2022-12-26T13:23:33.835Z,100416.72
2022-12-26T13:28:46.450Z,100433.59
2022-12-26T13:33:49.609Z,100448.44
2022-12-26T13:39:29.781Z,100463.72
2022-12-26T13:44:34.125Z,100494.34
2022-12-26T13:49:41.166Z,100503.00
2022-12-26T13:55:17.371Z,100525.66
2022-12-26T14:00:26.057Z,100542.25
2022-12-26T14:05:36.898Z,100552.25
2022-12-26T14:10:46.697Z,100579.16
2022-12-26T14:15:58.110Z,100585.41
2022-12-26T14:21:23.964Z,100599.56
2022-12-26T14:26:39.813Z,100610.09
2022-12-26T14:31:57.629Z,100627.88
2022-12-26T14:37:10.932Z,100631.44
2022-12-26T14:42:38.683Z,100641.88
2022-12-26T14:47:45.085Z,100660.41
2022-12-26T14:52:49.068Z,100667.59
2022-12-26T14:57:52.458Z,100683.66
2022-12-26T15:03:21.244Z,100704.53
2022-12-26T15:08:41.451Z,100708.41
2022-12-26T15:14:13.816Z,100737.25
2022-12-26T15:20:02.176Z,100744.13
2022-12-26T15:25:33.302Z,100745.78
2022-12-26T15:31:05.881Z,100754.50
2022-12-26T15:36:21.251Z,100761.41
2022-12-26T15:41:36.146Z,100757.53
2022-12-26T15:46:45.088Z,100766.41
2022-12-26T15:51:57.602Z,100767.06
2022-12-26T15:57:16.054Z,100786.22
2022-12-26T16:02:34.411Z,100791.69
2022-12-26T16:07:44.036Z,100788.50
2022-12-26T16:12:59.791Z,100806.59
2022-12-26T16:18:15.175Z,100810.97
2022-12-26T16:23:24.622Z,100821.03
2022-12-26T16:28:32.290Z,100823.22
2022-12-26T16:33:40.940Z,100822.28
2022-12-26T16:38:45.623Z,100827.38
2022-12-26T16:43:49.408Z,100832.03
2022-12-26T16:48:55.702Z,100830.31
2022-12-26T16:54:15.896Z,100826.00
2022-12-26T16:59:21.104Z,100831.34
2022-12-26T17:04:25.961Z,100834.59
2022-12-26T17:09:40.769Z,100848.50
2022-12-26T17:14:48.233Z,100849.16
2022-12-26T17:19:54.440Z,100856.72
2022-12-26T17:25:20.354Z,100874.22
2022-12-26T17:30:29.255Z,100875.91
2022-12-26T17:36:21.353Z,100875.72
2022-12-26T17:40:59.787Z,100867.56
2022-12-26T17:46:03.666Z,100878.34
2022-12-26T17:51:09.422Z,100881.38
2022-12-26T17:56:16.927Z,100872.81
2022-12-26T18:01:22.070Z,100879.47
2022-12-26T18:06:25.460Z,100880.81
2022-12-26T18:11:29.732Z,100879.41
2022-12-26T18:16:33.707Z,100887.63
2022-12-26T18:21:36.562Z,100902.09
2022-12-26T18:26:41.140Z,100907.50
2022-12-26T18:31:43.981Z,100924.88
2022-12-26T18:36:46.906Z,100925.78
2022-12-26T18:41:51.080Z,100927.44
2022-12-26T18:46:53.840Z,100940.41
2022-12-26T18:51:56.586Z,100939.66
2022-12-26T18:57:00.957Z,100944.63
2022-12-26T19:02:03.817Z,100954.09
2022-12-26T19:07:06.758Z,100960.88
2022-12-26T19:12:10.948Z,100971.84
2022-12-26T19:17:14.043Z,100972.91
2022-12-26T19:22:16.936Z,100968.53
2022-12-26T19:27:21.839Z,100969.00
2022-12-26T19:32:24.553Z,100970.53
2022-12-26T19:37:27.338Z,100977.56
2022-12-26T19:42:33.734Z,100979.22
2022-12-26T19:47:36.567Z,100975.03
2022-12-26T19:52:40.703Z,100992.41
2022-12-26T19:57:47.556Z,101002.38
2022-12-26T20:02:50.411Z,101004.50
2022-12-26T20:07:53.240Z,101011.38
2022-12-26T20:12:57.437Z,101029.84
2022-12-26T20:18:00.883Z,101027.03
2022-12-26T20:23:03.882Z,101031.97
2022-12-26T20:28:09.217Z,101036.25
2022-12-26T20:33:12.024Z,101039.13
2022-12-26T20:38:16.644Z,101055.31
2022-12-26T20:43:22.177Z,101071.41
2022-12-26T20:48:25.377Z,101073.31
2022-12-26T20:53:28.825Z,101063.59
2022-12-26T20:58:37.290Z,101069.97
2022-12-26T21:03:40.356Z,101076.72
2022-12-26T21:08:45.462Z,101071.69
2022-12-26T21:13:51.105Z,101086.59
2022-12-26T21:19:00.783Z,101094.09
2022-12-26T21:24:06.990Z,101088.31
2022-12-26T21:29:14.289Z,101096.00
2022-12-26T21:34:18.790Z,101088.50
2022-12-26T21:39:21.539Z,101102.91
2022-12-26T21:44:25.765Z,101113.06
2022-12-26T21:49:28.946Z,101122.66
2022-12-26T21:54:49.639Z,101130.19
2022-12-26T22:00:00.004Z,101130.84
2022-12-26T22:05:03.168Z,101131.91
2022-12-26T22:10:06.620Z,101131.59
2022-12-26T22:15:31.909Z,101135.63
2022-12-26T22:20:35.471Z,101139.69
2022-12-26T22:25:43.482Z,101148.09
2022-12-26T22:30:55.764Z,101155.81
2022-12-26T22:36:05.462Z,101157.03
2022-12-26T22:41:13.977Z,101159.25
2022-12-26T22:46:21.214Z,101163.63
2022-12-26T22:51:26.512Z,101169.03
2022-12-26T22:56:30.129Z,101180.47
2022-12-26T23:01:34.457Z,101180.97
2022-12-26T23:06:42.981Z,101182.13
2022-12-26T23:12:06.565Z,101179.88
2022-12-26T23:17:35.975Z,101194.72
2022-12-26T23:22:39.366Z,101186.22
2022-12-26T23:28:00.539Z,101184.72
2022-12-26T23:33:04.904Z,101178.44
2022-12-26T23:38:07.658Z,101188.44
2022-12-26T23:43:13.399Z,101189.13
2022-12-26T23:48:17.709Z,101192.75
2022-12-26T23:53:20.480Z,101193.41
2022-12-26T23:58:23.380Z,101192.75
